Time;durP1;ratioP1;P1;durP2;ratioP2;P2;SDS_P1;SDS_P2;PMS_P1;PMS_P2;Temp;Humidity;BMP_temperature;BMP_pressure;BME280_temperature;BME280_humidity;BME280_pressure;Samples;Min_cycle;Max_cycle;Signal;HPM_P1;HPM_P2
2021/06/14 00:03:31;;;;;;;;;;;25.50;38.50;;;;;;8330077;28;20481;-56
2021/06/14 00:07:32;;;;;;;2.33;2.00;;;25.50;38.50;;;;;;8329927;28;19912;-56
2021/06/14 00:11:32;;;;;;;2.05;1.85;;;25.50;38.60;;;;;;8329623;28;20494;-56
2021/06/14 00:15:33;;;;;;;2.15;1.80;;;25.40;38.50;;;;;;8329867;28;20037;-56
2021/06/14 00:19:34;;;;;;;;;;;25.40;38.50;;;;;;8329829;28;20229;-56
2021/06/14 00:23:35;;;;;;;2.30;2.10;;;25.40;38.60;;;;;;8329656;28;19927;-57
2021/06/14 00:27:36;;;;;;;3.03;2.03;;;25.40;38.60;;;;;;8329580;28;20029;-56
2021/06/14 00:31:36;;;;;;;3.08;2.00;;;25.40;38.60;;;;;;8332908;28;20021;-57
2021/06/14 00:35:37;;;;;;;3.22;1.80;;;25.40;38.60;;;;;;8335695;28;20394;-56
2021/06/14 00:39:38;;;;;;;2.22;2.00;;;25.40;38.60;;;;;;8336091;28;20036;-56
2021/06/14 00:43:39;;;;;;;2.17;1.98;;;25.30;38.60;;;;;;8335625;28;20037;-56
2021/06/14 00:47:46;;;;;;;2.22;2.00;;;25.30;38.60;;;;;;8335628;28;20029;-56
2021/06/14 00:51:47;;;;;;;1.95;1.70;;;25.30;38.50;;;;;;8335250;28;20075;-57
2021/06/14 00:55:48;;;;;;;2.33;2.08;;;25.30;38.60;;;;;;8335546;28;20038;-56
2021/06/14 00:59:49;;;;;;;1.90;1.75;;;25.30;38.60;;;;;;8334968;28;20021;-56
2021/06/14 01:03:49;;;;;;;2.22;2.03;;;25.30;38.70;;;;;;8334801;28;20046;-58
2021/06/14 01:07:50;;;;;;;2.38;2.15;;;25.30;38.70;;;;;;8334668;28;20025;-56
2021/06/14 01:12:18;;;;;;;2.22;1.98;;;25.30;38.70;;;;;;8334686;28;20030;-56
2021/06/14 01:16:31;;;;;;;2.10;1.90;;;25.20;38.60;;;;;;8334487;28;20048;-56
2021/06/14 01:20:50;;;;;;;2.10;1.90;;;25.20;38.70;;;;;;8334816;28;20370;-56
2021/06/14 01:25:21;;;;;;;2.10;1.90;;;25.20;38.50;;;;;;8334508;28;20044;-56
2021/06/14 01:29:23;;;;;;;1.88;1.60;;;25.20;38.70;;;;;;8334031;28;20325;-56
2021/06/14 01:33:27;;;;;;;2.00;1.77;;;25.20;38.60;;;;;;8334280;28;20052;-57
2021/06/14 01:37:28;;;;;;;1.83;1.73;;;25.20;38.80;;;;;;8333818;28;20437;-56
2021/06/14 01:41:31;;;;;;;2.97;2.15;;;25.20;38.70;;;;;;8332946;28;20036;-56
2021/06/14 01:45:33;;;;;;;2.10;1.90;;;25.20;38.70;;;;;;8333491;28;20104;-56
2021/06/14 01:49:35;;;;;;;2.47;1.90;;;25.20;38.70;;;;;;8333372;28;20033;-56
2021/06/14 01:53:37;;;;;;;2.63;1.98;;;25.10;38.70;;;;;;8333498;28;20037;-57
2021/06/14 01:57:39;;;;;;;3.13;1.92;;;25.10;38.60;;;;;;8332068;28;20478;-57
2021/06/14 02:01:42;;;;;;;1.73;1.63;;;25.10;38.70;;;;;;8333565;28;20022;-56
2021/06/14 02:05:43;;;;;;;2.63;1.90;;;25.10;38.70;;;;;;8333604;28;20029;-56
2021/06/14 02:09:44;;;;;;;2.45;1.90;;;25.10;38.80;;;;;;8333146;28;20068;-56
2021/06/14 02:13:46;;;;;;;;;;;25.00;38.70;;;;;;8332944;28;20033;-56
2021/06/14 02:17:48;;;;;;;1.80;1.52;;;25.10;38.80;;;;;;8333056;28;19905;-56
2021/06/14 02:21:49;;;;;;;2.08;1.88;;;25.00;38.90;;;;;;8332912;28;20518;-56
2021/06/14 02:25:49;;;;;;;1.95;1.75;;;25.00;38.80;;;;;;8332546;28;20033;-56
2021/06/14 02:29:50;;;;;;;3.72;1.88;;;25.00;38.80;;;;;;8332228;28;20033;-56
2021/06/14 02:33:50;;;;;;;2.25;2.05;;;25.00;38.90;;;;;;8331999;28;20049;-56
2021/06/14 02:37:57;;;;;;;3.20;1.85;;;25.00;38.90;;;;;;8332021;28;20029;-56
2021/06/14 02:41:58;;;;;;;2.17;1.98;;;25.00;38.90;;;;;;8332429;28;20049;-56
2021/06/14 02:46:00;;;;;;;3.40;1.85;;;25.00;38.90;;;;;;8331580;28;20029;-56
2021/06/14 02:50:04;;;;;;;1.75;1.65;;;25.00;38.90;;;;;;8331848;28;20470;-56
2021/06/14 02:54:16;;;;;;;1.98;1.70;;;25.00;38.90;;;;;;8330328;28;20437;-56
2021/06/14 02:58:34;;;;;;;2.13;1.90;;;24.90;38.90;;;;;;8331230;28;20445;-56
2021/06/14 03:02:37;;;;;;;2.10;1.77;;;24.90;38.90;;;;;;8331730;28;20647;-56
2021/06/14 03:06:38;;;;;;;1.88;1.65;;;24.90;39.00;;;;;;8331650;28;20076;-56
2021/06/14 03:10:38;;;;;;;2.80;2.00;;;24.90;38.90;;;;;;8330988;28;20025;-56
2021/06/14 03:14:39;;;;;;;2.10;1.90;;;24.90;39.00;;;;;;8331107;28;20107;-57
2021/06/14 03:18:43;;;;;;;1.85;1.65;;;24.80;38.90;;;;;;8330889;28;20082;-57
2021/06/14 03:22:43;;;;;;;2.03;1.88;;;24.80;39.00;;;;;;8330233;28;20037;-57
2021/06/14 03:26:46;;;;;;;3.00;1.67;;;24.80;39.00;;;;;;8330514;28;20057;-57
2021/06/14 03:30:48;;;;;;;2.25;2.15;;;24.80;39.00;;;;;;8330116;28;20033;-57
2021/06/14 03:34:50;;;;;;;3.13;1.90;;;24.80;39.00;;;;;;8330053;28;20047;-56
2021/06/14 03:38:51;;;;;;;2.72;2.08;;;24.80;39.10;;;;;;8330165;28;20013;-57
2021/06/14 03:42:59;;;;;;;2.47;2.00;;;24.80;39.00;;;;;;8330037;28;20030;-57
2021/06/14 03:46:59;;;;;;;1.83;1.65;;;24.70;39.00;;;;;;8330552;28;20478;-56
2021/06/14 03:51:00;;;;;;;2.57;2.33;;;24.70;38.90;;;;;;8329916;28;20026;-56
2021/06/14 03:55:01;;;;;;;2.28;2.08;;;24.70;39.00;;;;;;8329791;28;20303;-57
2021/06/14 03:59:01;;;;;;;2.60;1.98;;;24.70;39.00;;;;;;8330347;28;20108;-57
2021/06/14 04:03:02;;;;;;;2.40;2.03;;;24.70;39.00;;;;;;8329542;28;20033;-57
2021/06/14 04:07:03;;;;;;;3.65;2.35;;;24.70;39.10;;;;;;8329746;28;20056;-57
2021/06/14 04:11:04;;;;;;;;;;;24.70;39.10;;;;;;8330252;28;20021;-57
2021/06/14 04:15:06;;;;;;;3.42;1.90;;;24.70;39.10;;;;;;8329648;28;19913;-57
2021/06/14 04:19:07;;;;;;;2.30;2.10;;;24.70;39.20;;;;;;8329190;28;20482;-56
2021/06/14 04:23:07;;;;;;;2.00;1.80;;;24.60;39.10;;;;;;8329551;28;20021;-56
2021/06/14 04:27:08;;;;;;;3.25;2.03;;;24.60;39.20;;;;;;8329159;28;20080;-57
2021/06/14 04:31:09;;;;;;;2.28;2.08;;;24.60;39.20;;;;;;8329414;28;20340;-57
2021/06/14 04:35:11;;;;;;;2.35;2.15;;;24.60;39.10;;;;;;8329031;28;20037;-56
2021/06/14 04:39:12;;;;;;;2.20;2.00;;;24.60;39.20;;;;;;8328454;28;20029;-57
2021/06/14 04:43:12;;;;;;;2.22;1.92;;;24.60;39.20;;;;;;8327945;28;20108;-56
2021/06/14 04:47:13;;;;;;;2.75;2.17;;;24.60;39.20;;;;;;8328906;28;20080;-56
2021/06/14 04:51:14;;;;;;;2.33;2.10;;;24.50;39.10;;;;;;8327809;28;20048;-57
2021/06/14 04:55:15;;;;;;;2.55;2.03;;;24.50;39.10;;;;;;8329032;28;20471;-57
2021/06/14 04:59:15;;;;;;;2.97;2.45;;;24.50;39.10;;;;;;8328710;28;20057;-57
2021/06/14 05:03:16;;;;;;;2.15;1.85;;;24.50;39.20;;;;;;8328839;28;20455;-57
2021/06/14 05:07:16;;;;;;;2.28;2.08;;;24.60;39.30;;;;;;8328857;28;20021;-56
2021/06/14 05:11:17;;;;;;;2.38;2.05;;;24.50;39.10;;;;;;8328538;28;20057;-56
2021/06/14 05:15:17;;;;;;;3.35;1.80;;;24.50;39.10;;;;;;8328742;28;20045;-56
2021/06/14 05:19:18;;;;;;;2.22;2.03;;;24.60;39.00;;;;;;8332658;28;20108;-57
2021/06/14 05:23:19;;;;;;;3.97;2.38;;;24.70;38.80;;;;;;8334488;28;20473;-57
2021/06/14 05:27:19;;;;;;;2.13;1.92;;;24.80;39.10;;;;;;8334152;28;20057;-56
2021/06/14 05:31:20;;;;;;;2.88;1.95;;;25.00;38.20;;;;;;8334390;28;20091;-56
2021/06/14 05:35:20;;;;;;;3.40;2.20;;;25.20;37.80;;;;;;8333606;28;20038;-56
2021/06/14 05:39:21;;;;;;;;;;;25.40;37.50;;;;;;8334113;28;20045;-57
2021/06/14 05:43:22;;;;;;;2.60;1.80;;;25.50;37.30;;;;;;8333596;28;19915;-57
2021/06/14 05:47:22;;;;;;;;;;;25.50;37.20;;;;;;8333809;28;20021;-56
2021/06/14 05:51:23;;;;;;;2.23;1.83;;;25.40;37.10;;;;;;8333414;28;20369;-57
2021/06/14 05:55:24;;;;;;;;;;;25.40;37.30;;;;;;8333809;28;20056;-56
2021/06/14 05:59:24;;;;;;;3.87;1.83;;;25.40;37.40;;;;;;8333065;28;19927;-56
2021/06/14 06:03:25;;;;;;;;;;;25.30;37.50;;;;;;8333038;28;20437;-56
2021/06/14 06:07:25;;;;;;;2.93;2.10;;;25.20;37.50;;;;;;8332600;28;19905;-56
2021/06/14 06:11:26;;;;;;;4.25;2.10;;;25.10;37.70;;;;;;8332536;28;20057;-56
2021/06/14 06:15:27;;;;;;;1.95;1.83;;;25.10;37.80;;;;;;8332431;28;20046;-56
2021/06/14 06:19:28;;;;;;;4.80;2.10;;;25.00;37.80;;;;;;8332868;28;20467;-56
2021/06/14 06:23:29;;;;;;;3.47;2.10;;;25.00;38.00;;;;;;8332720;28;20037;-56
2021/06/14 06:27:29;;;;;;;2.47;2.13;;;24.90;38.60;;;;;;8332071;28;20029;-56
2021/06/14 06:31:30;;;;;;;2.22;2.00;;;24.90;38.20;;;;;;8331978;28;20517;-57
2021/06/14 06:35:32;;;;;;;2.88;2.10;;;24.80;38.20;;;;;;8332029;28;20380;-56
2021/06/14 06:39:32;;;;;;;2.30;2.00;;;24.80;38.30;;;;;;8331856;28;20025;-57
2021/06/14 06:43:36;;;;;;;3.78;2.10;;;24.80;38.30;;;;;;8332247;28;20037;-56
2021/06/14 06:47:37;;;;;;;2.17;1.88;;;24.80;38.30;;;;;;8331612;28;20097;-56
2021/06/14 06:51:37;;;;;;;2.10;1.88;;;24.70;38.40;;;;;;8332114;28;20029;-57
2021/06/14 06:55:38;;;;;;;3.22;2.15;;;24.70;38.50;;;;;;8331901;28;20433;-56
2021/06/14 06:59:38;;;;;;;2.60;1.98;;;24.70;38.60;;;;;;8330760;28;20496;-55
2021/06/14 07:03:41;;;;;;;3.22;2.00;;;24.60;38.60;;;;;;8331286;28;20061;-55
2021/06/14 07:07:43;;;;;;;2.22;1.83;;;24.60;38.60;;;;;;8331209;28;20029;-56
2021/06/14 07:11:43;;;;;;;2.40;1.80;;;24.60;38.60;;;;;;8331316;28;20091;-56
2021/06/14 07:15:44;;;;;;;1.88;1.63;;;24.60;38.70;;;;;;8330468;28;20042;-56
2021/06/14 07:19:46;;;;;;;2.30;2.10;;;24.60;38.70;;;;;;8330620;28;20500;-56
2021/06/14 07:23:46;;;;;;;3.28;2.00;;;24.60;38.80;;;;;;8330706;28;20393;-55
2021/06/14 07:27:47;;;;;;;5.45;1.95;;;24.60;38.70;;;;;;8330384;28;20037;-55
2021/06/14 07:31:47;;;;;;;1.95;1.75;;;24.60;38.80;;;;;;8330884;28;20025;-55
2021/06/14 07:35:48;;;;;;;2.78;2.33;;;24.50;38.80;;;;;;8330458;28;20047;-55
2021/06/14 07:39:48;;;;;;;2.35;2.15;;;24.50;38.80;;;;;;8329519;28;20489;-55
2021/06/14 07:43:50;;;;;;;3.28;2.60;;;24.60;38.70;;;;;;8330160;28;20056;-55
2021/06/14 07:47:51;;;;;;;2.72;2.45;;;24.50;38.70;;;;;;8329890;28;20028;-54
2021/06/14 07:51:52;;;;;;;2.67;2.47;;;24.60;38.80;;;;;;8329642;28;20470;-55
2021/06/14 07:55:53;;;;;;;3.55;2.60;;;24.50;38.90;;;;;;8329297;28;20040;-56
2021/06/14 07:59:54;;;;;;;2.92;2.40;;;24.60;39.00;;;;;;8329651;28;20030;-54
2021/06/14 08:03:54;;;;;;;2.60;2.40;;;24.60;38.90;;;;;;8329925;28;20091;-55
2021/06/14 08:07:55;;;;;;;3.00;2.33;;;24.60;38.90;;;;;;8329395;28;20033;-56
2021/06/14 08:11:57;;;;;;;2.65;2.28;;;24.60;39.00;;;;;;8329397;28;20324;-56
2021/06/14 08:15:59;;;;;;;2.75;2.38;;;24.60;39.00;;;;;;8329010;28;20069;-56
2021/06/14 08:20:10;;;;;;;2.40;2.20;;;24.60;39.00;;;;;;8329216;28;20064;-56
2021/06/14 08:28:29;;;;;;;3.00;2.60;;;24.60;38.90;;;;;;8329194;28;20095;-56
2021/06/14 08:32:30;;;;;;;3.35;2.40;;;24.60;39.10;;;;;;8329274;28;20030;-56
2021/06/14 08:36:31;;;;;;;2.85;2.58;;;24.70;39.10;;;;;;8329535;28;20552;-57
2021/06/14 08:40:33;;;;;;;3.03;2.47;;;24.70;39.10;;;;;;8329470;28;20079;-56
2021/06/14 08:44:35;;;;;;;2.92;2.60;;;24.70;39.10;;;;;;8329269;28;20025;-56
2021/06/14 08:48:37;;;;;;;3.15;2.40;;;24.70;39.10;;;;;;8329438;28;20029;-56
2021/06/14 08:52:39;;;;;;;3.00;2.22;;;24.70;39.20;;;;;;8330712;28;20489;-56
2021/06/14 08:56:40;;;;;;;3.88;2.92;;;24.70;39.20;;;;;;8335055;28;20033;-57
2021/06/14 09:00:41;;;;;;;2.80;2.30;;;24.80;39.20;;;;;;8335106;28;20455;-56
2021/06/14 09:04:41;;;;;;;2.72;2.35;;;24.70;39.10;;;;;;8334515;28;20380;-57
2021/06/14 09:08:55;;;;;;;3.15;2.40;;;24.80;39.30;;;;;;8334698;28;20502;-56
2021/06/14 09:13:16;;;;;;;3.08;2.63;;;24.80;39.30;;;;;;8334413;28;20029;-56
2021/06/14 09:17:17;;;;;;;4.53;2.70;;;24.80;39.30;;;;;;8335259;28;20112;-53
2021/06/14 09:21:18;;;;;;;3.00;2.40;;;24.80;39.30;;;;;;8334341;28;20017;-56
2021/06/14 09:25:19;;;;;;;2.33;2.13;;;24.80;39.30;;;;;;8334447;28;20436;-56
2021/06/14 09:29:27;;;;;;;3.92;2.63;;;24.90;39.30;;;;;;8334011;28;20030;-56
2021/06/14 09:33:28;;;;;;;2.90;2.13;;;24.90;39.40;;;;;;8333819;28;20034;-56
2021/06/14 09:37:28;;;;;;;2.42;2.20;;;24.90;39.40;;;;;;8333738;28;20018;-56
2021/06/14 09:41:36;;;;;;;2.70;2.40;;;24.90;39.30;;;;;;8333667;28;20037;-56
2021/06/14 09:45:41;;;;;;;2.72;2.53;;;25.00;39.30;;;;;;8333976;28;20402;-57
2021/06/14 09:49:55;;;;;;;3.17;2.53;;;25.00;39.40;;;;;;8333471;28;20032;-56
2021/06/14 09:53:57;;;;;;;2.85;2.33;;;25.00;39.30;;;;;;8333559;28;20486;-56
2021/06/14 09:57:57;;;;;;;;;;;25.00;39.40;;;;;;8333604;28;20045;-56
2021/06/14 10:02:06;;;;;;;4.07;2.57;;;25.00;39.40;;;;;;8332902;28;19913;-56
2021/06/14 10:06:06;;;;;;;3.10;2.33;;;25.10;39.40;;;;;;8332484;28;20025;-56
2021/06/14 10:10:18;;;;;;;3.17;2.53;;;25.10;39.50;;;;;;8332733;28;20032;-55
2021/06/14 10:14:21;;;;;;;2.67;2.15;;;25.10;39.50;;;;;;8332496;28;20038;-56
2021/06/14 10:18:30;;;;;;;3.67;2.75;;;25.10;39.50;;;;;;8332997;28;20029;-56
2021/06/14 10:22:31;;;;;;;3.10;2.35;;;25.10;39.40;;;;;;8333002;28;20167;-56
2021/06/14 10:26:32;;;;;;;2.90;2.47;;;25.20;40.00;;;;;;8332525;28;20033;-55
2021/06/14 10:30:32;;;;;;;2.75;2.10;;;25.20;39.40;;;;;;8332025;28;20037;-56
2021/06/14 10:34:33;;;;;;;3.42;2.65;;;25.20;39.40;;;;;;8331793;28;20040;-56
2021/06/14 10:38:39;;;;;;;3.20;1.98;;;25.20;39.40;;;;;;8331890;28;20029;-56
2021/06/14 10:42:41;;;;;;;2.10;1.95;;;25.30;39.50;;;;;;8331680;28;20463;-56
2021/06/14 10:46:47;;;;;;;3.33;2.22;;;25.30;39.40;;;;;;8332163;28;20052;-56
2021/06/14 10:50:48;;;;;;;2.90;2.40;;;25.30;39.40;;;;;;8331494;28;20029;-56
2021/06/14 10:54:48;;;;;;;;;;;25.30;39.40;;;;;;8331717;28;20033;-56
2021/06/14 10:59:00;;;;;;;3.90;2.33;;;25.30;39.30;;;;;;8331452;28;19912;-55
2021/06/14 11:03:03;;;;;;;2.53;2.22;;;25.30;39.40;;;;;;8331169;28;20482;-56
2021/06/14 11:07:04;;;;;;;2.67;2.00;;;25.40;39.40;;;;;;8331040;28;20030;-56
2021/06/14 11:11:06;;;;;;;2.72;1.92;;;25.40;39.50;;;;;;8331655;28;20025;-56
2021/06/14 11:15:08;;;;;;;2.78;2.30;;;25.40;39.20;;;;;;8330439;28;20033;-56
2021/06/14 11:19:11;;;;;;;3.38;2.47;;;25.40;39.30;;;;;;8331184;28;20072;-56
2021/06/14 11:23:21;;;;;;;2.25;2.00;;;25.40;39.20;;;;;;8330684;28;20025;-56
2021/06/14 11:27:21;;;;;;;2.88;2.33;;;25.50;39.30;;;;;;8330554;28;20029;-56
2021/06/14 11:31:26;;;;;;;3.17;2.53;;;25.50;39.30;;;;;;8329197;28;20044;-56
2021/06/14 11:35:28;;;;;;;2.45;2.25;;;25.50;39.20;;;;;;8330187;28;20044;-55
2021/06/14 11:39:29;;;;;;;2.50;2.13;;;25.50;39.00;;;;;;8330689;28;20036;-56
2021/06/14 11:43:29;;;;;;;2.40;2.20;;;25.50;39.10;;;;;;8330021;28;20029;-55
2021/06/14 11:47:30;;;;;;;2.97;2.42;;;25.50;39.20;;;;;;8330481;28;20021;-56
2021/06/14 11:51:32;;;;;;;2.53;2.33;;;25.60;39.10;;;;;;8330071;28;20112;-56
2021/06/14 11:55:38;;;;;;;3.10;2.33;;;25.60;39.10;;;;;;8329623;28;20124;-56
2021/06/14 11:59:39;;;;;;;2.25;2.05;;;25.60;38.80;;;;;;8329821;28;20025;-56
2021/06/14 12:03:39;;;;;;;;;;;25.60;39.00;;;;;;8330305;28;20033;-56
2021/06/14 12:07:41;;;;;;;2.77;2.47;;;25.60;39.10;;;;;;8330180;28;19912;-56
2021/06/14 12:11:43;;;;;;;2.40;2.20;;;25.70;38.90;;;;;;8329878;28;20544;-56
2021/06/14 12:15:44;;;;;;;2.83;2.22;;;25.70;39.00;;;;;;8329825;28;20033;-56
2021/06/14 12:19:44;;;;;;;;;;;25.70;38.90;;;;;;8329829;28;20108;-56
2021/06/14 12:23:45;;;;;;;4.00;3.03;;;25.70;38.80;;;;;;8329283;28;19905;-56
2021/06/14 12:27:45;;;;;;;;;;;25.80;38.70;;;;;;8334073;28;20426;-56
2021/06/14 12:31:46;;;;;;;2.47;2.20;;;25.80;38.70;;;;;;8335952;28;19915;-56
2021/06/14 12:35:50;;;;;;;;;;;25.80;38.70;;;;;;8336239;28;20040;-55
2021/06/14 12:40:06;;;;;;;2.85;2.60;;;25.80;38.60;;;;;;8335815;28;20007;-55
2021/06/14 12:44:13;;;;;;;2.22;1.92;;;25.80;38.80;;;;;;8335486;28;20037;-55
2021/06/14 12:48:18;;;;;;;2.95;2.30;;;25.80;38.60;;;;;;8335624;28;20068;-56
2021/06/14 12:52:20;;;;;;;2.78;2.20;;;25.90;38.40;;;;;;8335612;28;20029;-55
2021/06/14 12:56:21;;;;;;;3.70;2.45;;;25.90;38.40;;;;;;8335051;28;20040;-56
2021/06/14 13:00:28;;;;;;;2.67;2.00;;;25.90;38.80;;;;;;8335750;28;20363;-56
2021/06/14 13:04:28;;;;;;;2.30;2.00;;;25.90;38.40;;;;;;8334793;28;20040;-56
2021/06/14 13:08:38;;;;;;;2.70;2.40;;;25.90;38.60;;;;;;8334938;28;20100;-55
2021/06/14 13:12:38;;;;;;;2.30;1.83;;;26.00;38.80;;;;;;8334558;28;20026;-56
2021/06/14 13:16:48;;;;;;;2.50;2.03;;;26.00;38.90;;;;;;8334610;28;20478;-56
2021/06/14 13:20:50;;;;;;;2.53;2.33;;;26.00;38.70;;;;;;8334544;28;20371;-55
2021/06/14 13:24:51;;;;;;;2.53;2.17;;;26.00;38.70;;;;;;8334821;28;20026;-56
2021/06/14 13:28:52;;;;;;;3.45;2.40;;;26.00;38.70;;;;;;8334323;28;20018;-56
2021/06/14 13:33:04;;;;;;;3.10;2.30;;;26.10;38.70;;;;;;8334064;28;20034;-55
2021/06/14 13:37:05;;;;;;;3.05;2.58;;;26.10;38.80;;;;;;8333860;28;20398;-55
2021/06/14 13:41:06;;;;;;;4.18;2.42;;;26.10;38.90;;;;;;8333340;28;20052;-55
2021/06/14 13:45:07;;;;;;;2.85;2.33;;;26.10;39.00;;;;;;8333649;28;20097;-54
2021/06/14 13:49:08;;;;;;;;;;;26.10;38.80;;;;;;8334483;28;20021;-55
2021/06/14 13:53:11;;;;;;;2.75;2.22;;;26.10;38.70;;;;;;8333304;28;19996;-55
2021/06/14 13:57:14;;;;;;;2.47;2.15;;;26.10;38.90;;;;;;8333374;28;20033;-55
2021/06/14 14:01:23;;;;;;;2.45;2.10;;;26.20;38.60;;;;;;8333687;28;20084;-55
2021/06/14 14:05:30;;;;;;;2.83;2.30;;;26.20;38.90;;;;;;8333471;28;20041;-55
2021/06/14 14:09:31;;;;;;;3.03;2.25;;;26.20;38.70;;;;;;8333179;28;20025;-55
2021/06/14 14:13:32;;;;;;;2.47;2.08;;;26.20;38.80;;;;;;8333425;28;20042;-56
2021/06/14 14:17:33;;;;;;;3.03;2.38;;;26.20;38.70;;;;;;8333146;28;20017;-55
2021/06/14 14:21:34;;;;;;;;;;;26.20;39.00;;;;;;8346984;28;20040;-55
2021/06/14 14:25:34;;;;;;;2.37;1.80;;;26.30;35.30;;;;;;8351490;28;20261;-53
2021/06/14 14:29:36;;;;;;;;;;;26.40;31.60;;;;;;8332385;28;20025;-53
2021/06/14 14:33:37;;;;;;;2.58;1.77;;;26.60;30.90;;;;;;8331406;28;19972;-52
2021/06/14 14:37:47;;;;;;;1.95;1.63;;;26.80;31.40;;;;;;8332014;28;20479;-52
2021/06/14 14:41:50;;;;;;;2.63;1.60;;;26.80;30.50;;;;;;8331394;28;20041;-52
2021/06/14 14:45:51;;;;;;;4.18;1.60;;;26.90;29.50;;;;;;8331533;28;20486;-55
2021/06/14 14:49:52;;;;;;;2.65;1.70;;;27.00;30.00;;;;;;8331918;28;20022;-54
2021/06/14 14:54:02;;;;;;;;;;;27.00;30.10;;;;;;8331636;28;20040;-55
2021/06/14 14:58:02;;;;;;;2.08;1.65;;;27.00;30.00;;;;;;8334604;28;19912;-55
2021/06/14 15:02:03;;;;;;;;;;;27.00;31.30;;;;;;8332122;28;20498;-54
2021/06/14 15:06:04;;;;;;;2.97;1.77;;;27.00;30.00;;;;;;8324901;28;19905;-56
2021/06/14 15:10:05;;;;;;;;;;;27.00;30.70;;;;;;8330894;28;20028;-52
2021/06/14 15:14:07;;;;;;;2.78;1.80;;;27.10;31.20;;;;;;8325522;28;20258;-55
2021/06/14 15:18:07;;;;;;;3.30;1.70;;;27.20;30.90;;;;;;8326314;28;20032;-52
2021/06/14 15:22:08;;;;;;;;;;;27.20;30.80;;;;;;8330739;28;20116;-53
2021/06/14 15:26:09;;;;;;;3.93;2.33;;;27.20;30.80;;;;;;8329817;28;19974;-54
2021/06/14 15:30:10;;;;;;;;;;;27.20;31.50;;;;;;8332918;28;20017;-57
2021/06/14 15:34:10;;;;;;;;;;;27.20;32.10;;;;;;8363386;28;20324;-54
2021/06/14 15:38:11;;;;;;;9.37;2.40;;;27.20;33.10;;;;;;8362994;28;19935;-53
2021/06/14 15:42:12;;;;;;;;;;;27.20;32.40;;;;;;8359501;28;20081;-52
2021/06/14 15:46:13;;;;;;;3.28;2.13;;;27.30;32.20;;;;;;8343652;28;20352;-55
2021/06/14 15:50:13;;;;;;;;;;;27.30;32.70;;;;;;8329704;28;20533;-56
2021/06/14 15:54:14;;;;;;;2.70;1.87;;;27.30;32.30;;;;;;8329971;28;20348;-54
2021/06/14 15:58:14;;;;;;;;;;;27.30;32.20;;;;;;8330249;28;20473;-54
2021/06/14 16:02:15;;;;;;;9.13;2.93;;;27.30;32.20;;;;;;8329453;28;19940;-55
2021/06/14 16:06:16;;;;;;;;;;;27.40;32.10;;;;;;8330811;28;20040;-55
2021/06/14 16:10:18;;;;;;;18.13;4.90;;;27.40;31.90;;;;;;8329423;28;19962;-55
2021/06/14 16:14:18;;;;;;;21.48;7.13;;;27.40;31.70;;;;;;8298129;28;20039;-58
2021/06/14 16:18:18;;;;;;;;;;;27.40;35.30;;;;;;8275504;28;20392;-57
2021/06/14 16:22:19;;;;;;;20.33;4.53;;;27.40;32.60;;;;;;8256460;28;20431;-56
2021/06/14 16:26:20;;;;;;;;;;;27.30;33.20;;;;;;8260051;28;20034;-55
2021/06/14 16:30:21;;;;;;;16.20;3.60;;;27.40;33.60;;;;;;8259465;28;19920;-57
2021/06/14 16:34:22;;;;;;;11.73;3.13;;;27.40;33.00;;;;;;8239516;28;20456;-56
2021/06/14 16:38:22;;;;;;;;;;;27.50;32.30;;;;;;8265721;28;20122;-51
2021/06/14 16:42:23;;;;;;;9.20;3.33;;;27.50;31.40;;;;;;8225247;28;20378;-55
2021/06/14 16:46:23;;;;;;;12.27;3.72;;;27.50;33.60;;;;;;8226531;28;20066;-52
2021/06/14 16:50:25;;;;;;;;;;;27.50;34.40;;;;;;8251394;28;20093;-55
2021/06/14 16:54:27;;;;;;;10.82;3.20;;;27.50;36.80;;;;;;8242837;28;19965;-52
2021/06/14 16:58:27;;;;;;;9.93;2.60;;;27.40;36.20;;;;;;8243554;28;20133;-54
2021/06/14 17:02:28;;;;;;;;;;;27.50;34.50;;;;;;8232774;28;20038;-54
2021/06/14 17:06:28;;;;;;;8.10;2.70;;;27.40;35.80;;;;;;8236449;28;19918;-56
2021/06/14 17:10:29;;;;;;;6.82;3.05;;;27.50;35.60;;;;;;8249841;28;20042;-56
2021/06/14 17:14:29;;;;;;;;;;;27.40;36.50;;;;;;8257875;28;20141;-56
2021/06/14 17:18:30;;;;;;;9.63;3.17;;;27.40;36.90;;;;;;8258758;28;19961;-58
2021/06/14 17:22:30;;;;;;;;;;;27.40;37.30;;;;;;8257780;28;20045;-58
2021/06/14 17:26:31;;;;;;;8.33;2.63;;;27.40;37.60;;;;;;8258519;28;20298;-58
2021/06/14 17:30:31;;;;;;;;;;;27.30;37.60;;;;;;8243602;28;20031;-56
2021/06/14 17:34:32;;;;;;;11.10;3.20;;;27.30;38.10;;;;;;8228021;28;19926;-57
2021/06/14 17:38:33;;;;;;;7.40;2.88;;;27.30;38.40;;;;;;8247417;28;20047;-57
2021/06/14 17:42:33;;;;;;;9.55;3.50;;;27.30;39.10;;;;;;8244945;28;20484;-57
2021/06/14 17:46:34;;;;;;;;;;;27.30;38.60;;;;;;8261214;28;20039;-57
2021/06/14 17:50:36;;;;;;;6.93;3.50;;;27.30;38.80;;;;;;8240095;28;19918;-57
2021/06/14 17:54:37;;;;;;;10.43;4.50;;;27.30;38.70;;;;;;8258096;28;20081;-56
2021/06/14 17:58:38;;;;;;;;;;;27.30;38.70;;;;;;8253452;28;20038;-57
2021/06/14 18:02:38;;;;;;;11.40;4.00;;;27.30;38.70;;;;;;8234739;28;19926;-57
2021/06/14 18:06:39;;;;;;;;;;;27.30;38.80;;;;;;8250627;28;20041;-57
2021/06/14 18:10:40;;;;;;;4.77;2.67;;;27.30;38.70;;;;;;8252199;28;19918;-55
2021/06/14 18:14:40;;;;;;;;;;;27.30;38.90;;;;;;8238261;28;20052;-57
2021/06/14 18:18:42;;;;;;;6.77;2.70;;;27.30;38.80;;;;;;8236574;28;19937;-56
2021/06/14 18:22:44;;;;;;;4.10;2.42;;;27.30;39.00;;;;;;8255984;28;20100;-57
2021/06/14 18:26:45;;;;;;;5.22;2.80;;;27.30;38.80;;;;;;8257160;28;20456;-58
2021/06/14 18:30:46;;;;;;;;;;;27.30;39.10;;;;;;8257343;28;20093;-57
2021/06/14 18:34:46;;;;;;;5.70;3.07;;;27.30;39.20;;;;;;8226364;28;19926;-58
2021/06/14 18:38:47;;;;;;;;;;;27.30;39.30;;;;;;8228285;28;21028;-56
2021/06/14 18:42:49;;;;;;;4.43;3.17;;;27.30;39.40;;;;;;8205925;28;19957;-55
2021/06/14 18:46:50;;;;;;;3.78;2.72;;;27.30;39.60;;;;;;8259621;28;20042;-56
2021/06/14 18:50:50;;;;;;;;;;;27.30;39.70;;;;;;8256857;28;20034;-56
2021/06/14 18:54:51;;;;;;;5.33;2.33;;;27.30;39.70;;;;;;8234466;28;19957;-56
2021/06/14 18:58:53;;;;;;;8.88;3.20;;;27.40;39.70;;;;;;8256960;28;20042;-56
2021/06/14 19:02:53;;;;;;;11.10;2.75;;;27.40;39.80;;;;;;8243982;28;20047;-57
2021/06/14 19:06:54;;;;;;;;;;;27.40;39.60;;;;;;8250284;28;20510;-56
2021/06/14 19:10:55;;;;;;;5.50;2.77;;;27.30;39.70;;;;;;8229255;28;20316;-56
2021/06/14 19:14:55;;;;;;;;;;;27.30;39.60;;;;;;8248281;28;20108;-56
2021/06/14 19:18:56;;;;;;;6.00;2.73;;;27.30;39.50;;;;;;8238788;28;20371;-56
2021/06/14 19:22:58;;;;;;;;;;;27.30;39.50;;;;;;8258354;28;20035;-56
2021/06/14 19:26:59;;;;;;;3.72;2.78;;;27.20;39.50;;;;;;8260866;28;19923;-56
2021/06/14 19:30:59;;;;;;;;;;;27.20;39.40;;;;;;8262614;28;20038;-58
2021/06/14 19:35:00;;;;;;;6.57;2.80;;;27.20;39.50;;;;;;8254864;28;20410;-56
2021/06/14 19:39:01;;;;;;;;;;;27.20;39.40;;;;;;8228837;28;20038;-58
2021/06/14 19:43:01;;;;;;;4.63;2.03;;;27.20;39.50;;;;;;8229064;28;19974;-57
2021/06/14 19:47:02;;;;;;;;;;;27.20;39.50;;;;;;8258680;28;20077;-57
2021/06/14 19:51:04;;;;;;;5.10;2.47;;;27.10;39.40;;;;;;8264807;28;19921;-57
2021/06/14 19:55:08;;;;;;;4.63;2.40;;;27.10;39.20;;;;;;8259383;28;20049;-57
2021/06/14 19:59:09;;;;;;;3.35;1.90;;;27.10;39.30;;;;;;8250889;28;20563;-56
2021/06/14 20:03:10;;;;;;;;;;;27.10;39.20;;;;;;8244935;28;20042;-57
2021/06/14 20:07:12;;;;;;;3.40;2.60;;;27.10;39.30;;;;;;8262462;28;19976;-57
2021/06/14 20:11:13;;;;;;;5.60;3.00;;;27.00;39.20;;;;;;8260492;28;20208;-57
2021/06/14 20:15:14;;;;;;;;;;;27.00;39.20;;;;;;8260499;28;20054;-57
2021/06/14 20:19:14;;;;;;;4.97;2.83;;;27.00;39.30;;;;;;8222345;28;19922;-56
2021/06/14 20:23:15;;;;;;;;;;;27.00;39.30;;;;;;8208150;28;20043;-56
2021/06/14 20:27:16;;;;;;;2.85;2.25;;;27.00;39.30;;;;;;8264089;28;19914;-57
2021/06/14 20:31:16;;;;;;;;;;;26.90;39.10;;;;;;8258089;28;20522;-57
2021/06/14 20:35:17;;;;;;;3.77;2.10;;;26.90;39.10;;;;;;8250319;28;20327;-56
2021/06/14 20:39:17;;;;;;;;;;;26.90;39.20;;;;;;8245065;28;20383;-56
2021/06/14 20:43:18;;;;;;;4.20;2.07;;;26.90;39.10;;;;;;8262187;28;19996;-58
2021/06/14 20:47:18;;;;;;;;;;;26.90;39.20;;;;;;8261227;28;20065;-58
2021/06/14 20:51:19;;;;;;;5.13;2.17;;;26.90;39.20;;;;;;8265703;28;20012;-57
2021/06/14 20:55:20;;;;;;;;;;;26.90;39.30;;;;;;8237953;28;20055;-57
2021/06/14 20:59:21;;;;;;;6.05;2.30;;;26.80;39.20;;;;;;8235435;28;19919;-56
2021/06/14 21:03:22;;;;;;;;;;;26.80;39.20;;;;;;8253425;28;20515;-59
2021/06/14 21:07:22;;;;;;;3.97;2.17;;;26.80;39.10;;;;;;8261178;28;20319;-60
2021/06/14 21:11:23;;;;;;;;;;;26.80;39.30;;;;;;8243206;28;20030;-56
2021/06/14 21:15:23;;;;;;;3.40;2.43;;;26.80;39.30;;;;;;8265003;28;19922;-57
2021/06/14 21:19:23;;;;;;;;;;;26.80;39.30;;;;;;8241503;28;20092;-56
2021/06/14 21:23:24;;;;;;;3.17;2.00;;;26.80;39.30;;;;;;8242763;28;19918;-57
2021/06/14 21:27:24;;;;;;;;;;;26.80;39.30;;;;;;8265197;28;20046;-57
2021/06/14 21:31:25;;;;;;;2.93;2.30;;;26.80;39.30;;;;;;8238651;28;19921;-57